sensor_id;sensor_type;location;lat;lon;timestamp;pressure;altitude;pressure_sealevel;temperature;humidity
20013;BME280;10167;42.852;23.042;2023-03-11T00:01:25;93103.38;;;10.71;100.00
20013;BME280;10167;42.852;23.042;2023-03-11T00:03:54;93099.47;;;10.64;100.00
20013;BME280;10167;42.852;23.042;2023-03-11T00:06:24;93097.97;;;10.81;100.00
20013;BME280;10167;42.852;23.042;2023-03-11T00:08:53;93092.88;;;10.85;100.00
20013;BME280;10167;42.852;23.042;2023-03-11T00:11:22;93096.41;;;10.80;100.00
20013;BME280;10167;42.852;23.042;2023-03-11T00:13:51;93088.38;;;10.85;100.00
20013;BME280;10167;42.852;23.042;2023-03-11T00:16:22;93086.88;;;10.79;100.00
20013;BME280;10167;42.852;23.042;2023-03-11T00:18:51;93078.38;;;10.82;100.00
20013;BME280;10167;42.852;23.042;2023-03-11T00:21:20;93074.53;;;10.94;100.00
20013;BME280;10167;42.852;23.042;2023-03-11T00:23:49;93065.53;;;10.95;100.00
20013;BME280;10167;42.852;23.042;2023-03-11T00:26:18;93065.53;;;10.95;100.00
20013;BME280;10167;42.852;23.042;2023-03-11T00:28:48;93043.31;;;10.90;100.00
20013;BME280;10167;42.852;23.042;2023-03-11T00:31:17;93044.94;;;10.86;100.00
20013;BME280;10167;42.852;23.042;2023-03-11T00:33:48;93056.44;;;11.01;100.00
20013;BME280;10167;42.852;23.042;2023-03-11T00:36:21;93040.28;;;11.02;100.00
20013;BME280;10167;42.852;23.042;2023-03-11T00:38:51;93029.72;;;10.97;100.00
20013;BME280;10167;42.852;23.042;2023-03-11T00:41:20;93027.16;;;10.92;100.00
20013;BME280;10167;42.852;23.042;2023-03-11T00:43:50;93025.91;;;10.84;100.00
20013;BME280;10167;42.852;23.042;2023-03-11T00:46:19;93029.44;;;10.80;100.00
20013;BME280;10167;42.852;23.042;2023-03-11T00:48:51;93020.13;;;10.82;100.00
20013;BME280;10167;42.852;23.042;2023-03-11T00:51:20;93018.88;;;10.75;100.00
20013;BME280;10167;42.852;23.042;2023-03-11T00:53:49;93023.75;;;10.68;100.00
20013;BME280;10167;42.852;23.042;2023-03-11T00:56:18;93038.84;;;10.67;100.00
20013;BME280;10167;42.852;23.042;2023-03-11T00:58:47;93016.09;;;10.66;100.00
20013;BME280;10167;42.852;23.042;2023-03-11T01:01:18;93012.13;;;10.64;100.00
20013;BME280;10167;42.852;23.042;2023-03-11T01:03:49;93001.63;;;10.59;100.00
20013;BME280;10167;42.852;23.042;2023-03-11T01:06:18;93001.03;;;10.62;100.00
20013;BME280;10167;42.852;23.042;2023-03-11T01:08:48;92999.97;;;10.63;100.00
20013;BME280;10167;42.852;23.042;2023-03-11T01:11:17;92991.03;;;10.59;100.00
20013;BME280;10167;42.852;23.042;2023-03-11T01:13:46;92981.00;;;10.55;100.00
20013;BME280;10167;42.852;23.042;2023-03-11T01:16:15;92969.19;;;10.48;100.00
20013;BME280;10167;42.852;23.042;2023-03-11T01:18:44;92978.41;;;10.50;100.00
20013;BME280;10167;42.852;23.042;2023-03-11T01:21:18;93009.78;;;10.38;100.00
20013;BME280;10167;42.852;23.042;2023-03-11T01:23:46;93029.97;;;10.29;100.00
20013;BME280;10167;42.852;23.042;2023-03-11T01:26:15;93021.91;;;10.15;100.00
20013;BME280;10167;42.852;23.042;2023-03-11T01:28:44;93010.91;;;10.03;100.00
20013;BME280;10167;42.852;23.042;2023-03-11T01:31:13;93012.19;;;10.06;100.00
20013;BME280;10167;42.852;23.042;2023-03-11T01:33:42;93008.72;;;10.10;100.00
20013;BME280;10167;42.852;23.042;2023-03-11T01:36:12;93021.66;;;10.12;100.00
20013;BME280;10167;42.852;23.042;2023-03-11T01:38:42;93030.88;;;10.14;100.00
20013;BME280;10167;42.852;23.042;2023-03-11T01:41:12;93029.28;;;10.18;100.00
20013;BME280;10167;42.852;23.042;2023-03-11T01:43:50;93027.66;;;10.23;100.00
20013;BME280;10167;42.852;23.042;2023-03-11T01:46:25;93034.75;;;10.27;100.00
20013;BME280;10167;42.852;23.042;2023-03-11T01:48:56;93034.81;;;10.22;100.00
20013;BME280;10167;42.852;23.042;2023-03-11T01:51:31;93032.69;;;10.24;100.00
20013;BME280;10167;42.852;23.042;2023-03-11T01:54:05;93042.19;;;10.25;100.00
20013;BME280;10167;42.852;23.042;2023-03-11T01:56:34;93045.13;;;10.24;100.00
20013;BME280;10167;42.852;23.042;2023-03-11T01:59:06;93045.56;;;10.31;100.00
20013;BME280;10167;42.852;23.042;2023-03-11T02:01:42;93035.38;;;10.14;100.00
20013;BME280;10167;42.852;23.042;2023-03-11T02:04:16;93041.75;;;10.13;100.00
20013;BME280;10167;42.852;23.042;2023-03-11T02:06:46;93041.16;;;10.16;100.00
20013;BME280;10167;42.852;23.042;2023-03-11T02:09:20;93045.16;;;10.18;100.00
20013;BME280;10167;42.852;23.042;2023-03-11T02:11:50;93053.38;;;10.12;100.00
20013;BME280;10167;42.852;23.042;2023-03-11T02:14:20;93057.03;;;10.16;100.00
20013;BME280;10167;42.852;23.042;2023-03-11T02:16:52;93063.97;;;10.12;100.00
20013;BME280;10167;42.852;23.042;2023-03-11T02:19:26;93074.78;;;10.15;100.00
20013;BME280;10167;42.852;23.042;2023-03-11T02:21:58;93073.44;;;10.18;100.00
20013;BME280;10167;42.852;23.042;2023-03-11T02:24:36;93078.97;;;10.16;100.00
20013;BME280;10167;42.852;23.042;2023-03-11T02:27:11;93072.41;;;10.14;100.00
20013;BME280;10167;42.852;23.042;2023-03-11T02:29:45;93080.63;;;10.12;100.00
20013;BME280;10167;42.852;23.042;2023-03-11T02:32:17;93088.81;;;10.11;100.00
20013;BME280;10167;42.852;23.042;2023-03-11T02:34:46;93086.22;;;10.06;100.00
20013;BME280;10167;42.852;23.042;2023-03-11T02:37:17;93091.50;;;10.06;100.00
20013;BME280;10167;42.852;23.042;2023-03-11T02:39:53;93074.34;;;10.03;100.00
20013;BME280;10167;42.852;23.042;2023-03-11T02:42:26;93081.25;;;9.99;100.00
20013;BME280;10167;42.852;23.042;2023-03-11T02:44:58;93071.72;;;10.03;100.00
20013;BME280;10167;42.852;23.042;2023-03-11T02:47:30;93070.03;;;10.12;100.00
20013;BME280;10167;42.852;23.042;2023-03-11T02:50:00;93070.03;;;10.12;100.00
20013;BME280;10167;42.852;23.042;2023-03-11T02:52:31;93070.84;;;10.13;100.00
20013;BME280;10167;42.852;23.042;2023-03-11T02:55:01;93070.25;;;10.16;100.00
20013;BME280;10167;42.852;23.042;2023-03-11T02:57:32;93073.75;;;10.11;100.00
20013;BME280;10167;42.852;23.042;2023-03-11T03:00:02;93071.38;;;10.10;100.00
20013;BME280;10167;42.852;23.042;2023-03-11T03:02:38;93066.59;;;10.12;100.00
20013;BME280;10167;42.852;23.042;2023-03-11T03:05:08;93067.44;;;10.07;100.00
20013;BME280;10167;42.852;23.042;2023-03-11T03:07:38;93067.66;;;10.11;100.00
20013;BME280;10167;42.852;23.042;2023-03-11T03:10:08;93062.94;;;10.08;100.00
20013;BME280;10167;42.852;23.042;2023-03-11T03:12:39;93056.63;;;10.04;100.00
20013;BME280;10167;42.852;23.042;2023-03-11T03:15:10;93054.22;;;10.07;100.00
20013;BME280;10167;42.852;23.042;2023-03-11T03:17:40;93059.28;;;10.04;100.00
20013;BME280;10167;42.852;23.042;2023-03-11T03:20:10;93069.88;;;10.04;100.00
20013;BME280;10167;42.852;23.042;2023-03-11T03:22:45;93067.22;;;10.04;100.00
20013;BME280;10167;42.852;23.042;2023-03-11T03:25:17;93070.59;;;10.09;100.00
20013;BME280;10167;42.852;23.042;2023-03-11T03:27:48;93071.09;;;10.11;100.00
20013;BME280;10167;42.852;23.042;2023-03-11T03:30:18;93069.25;;;10.12;100.00
20013;BME280;10167;42.852;23.042;2023-03-11T03:32:47;93067.41;;;10.12;100.00
20013;BME280;10167;42.852;23.042;2023-03-11T03:35:18;93068.97;;;10.13;100.00
20013;BME280;10167;42.852;23.042;2023-03-11T03:37:56;93074.28;;;10.13;100.00
20013;BME280;10167;42.852;23.042;2023-03-11T03:40:25;93065.53;;;10.13;100.00
20013;BME280;10167;42.852;23.042;2023-03-11T03:42:58;93057.19;;;10.01;100.00
20013;BME280;10167;42.852;23.042;2023-03-11T03:45:29;93063.66;;;9.84;100.00
20013;BME280;10167;42.852;23.042;2023-03-11T03:47:58;93066.19;;;10.00;100.00
20013;BME280;10167;42.852;23.042;2023-03-11T03:50:31;93064.28;;;10.05;100.00
20013;BME280;10167;42.852;23.042;2023-03-11T03:53:01;93058.34;;;9.90;100.00
20013;BME280;10167;42.852;23.042;2023-03-11T03:55:30;93058.06;;;9.91;100.00
20013;BME280;10167;42.852;23.042;2023-03-11T03:58:02;93053.84;;;9.90;100.00
20013;BME280;10167;42.852;23.042;2023-03-11T04:00:33;93065.38;;;9.99;100.00
20013;BME280;10167;42.852;23.042;2023-03-11T04:03:02;93063.56;;;9.95;100.00
20013;BME280;10167;42.852;23.042;2023-03-11T04:05:42;93059.41;;;9.89;100.00
20013;BME280;10167;42.852;23.042;2023-03-11T04:08:13;93054.63;;;9.91;100.00
20013;BME280;10167;42.852;23.042;2023-03-11T04:10:43;93061.72;;;9.95;100.00
20013;BME280;10167;42.852;23.042;2023-03-11T04:13:13;93060.66;;;9.96;100.00
20013;BME280;10167;42.852;23.042;2023-03-11T04:15:44;93059.34;;;9.94;100.00
20013;BME280;10167;42.852;23.042;2023-03-11T04:18:13;93057.50;;;9.94;100.00
20013;BME280;10167;42.852;23.042;2023-03-11T04:20:42;93056.66;;;9.99;100.00
20013;BME280;10167;42.852;23.042;2023-03-11T04:23:12;93059.34;;;9.94;100.00
20013;BME280;10167;42.852;23.042;2023-03-11T04:25:41;93060.72;;;9.86;100.00
20013;BME280;10167;42.852;23.042;2023-03-11T04:28:11;93058.06;;;9.91;100.00
20013;BME280;10167;42.852;23.042;2023-03-11T04:30:41;93057.53;;;9.89;100.00
20013;BME280;10167;42.852;23.042;2023-03-11T04:33:10;93072.50;;;10.04;100.00
20013;BME280;10167;42.852;23.042;2023-03-11T04:35:43;93069.44;;;9.92;100.00
20013;BME280;10167;42.852;23.042;2023-03-11T04:38:12;93078.38;;;9.96;100.00
20013;BME280;10167;42.852;23.042;2023-03-11T04:40:41;93075.25;;;9.89;100.00
20013;BME280;10167;42.852;23.042;2023-03-11T04:43:11;93084.59;;;9.76;100.00
20013;BME280;10167;42.852;23.042;2023-03-11T04:45:44;93089.88;;;9.81;100.00
20013;BME280;10167;42.852;23.042;2023-03-11T04:48:18;93094.66;;;9.74;100.00
20013;BME280;10167;42.852;23.042;2023-03-11T04:50:47;93089.63;;;9.72;100.00
20013;BME280;10167;42.852;23.042;2023-03-11T04:53:16;93088.06;;;9.71;100.00
20013;BME280;10167;42.852;23.042;2023-03-11T04:55:46;93093.88;;;9.73;100.00
20013;BME280;10167;42.852;23.042;2023-03-11T04:58:15;93101.00;;;9.73;100.00
20013;BME280;10167;42.852;23.042;2023-03-11T05:00:47;93096.50;;;9.73;100.00
20013;BME280;10167;42.852;23.042;2023-03-11T05:03:16;93107.59;;;9.75;100.00
20013;BME280;10167;42.852;23.042;2023-03-11T05:05:46;93109.31;;;9.95;100.00
20013;BME280;10167;42.852;23.042;2023-03-11T05:08:17;93112.72;;;10.01;100.00
20013;BME280;10167;42.852;23.042;2023-03-11T05:10:46;93101.63;;;9.99;100.00
20013;BME280;10167;42.852;23.042;2023-03-11T05:13:15;93110.06;;;10.01;100.00
20013;BME280;10167;42.852;23.042;2023-03-11T05:15:45;93108.38;;;10.15;100.00
20013;BME280;10167;42.852;23.042;2023-03-11T05:18:16;93112.09;;;10.09;100.00
20013;BME280;10167;42.852;23.042;2023-03-11T05:20:47;93115.03;;;10.07;100.00
20013;BME280;10167;42.852;23.042;2023-03-11T05:23:20;93117.72;;;10.02;100.00
20013;BME280;10167;42.852;23.042;2023-03-11T05:25:49;93121.28;;;10.16;100.00
20013;BME280;10167;42.852;23.042;2023-03-11T05:28:18;93120.22;;;10.17;100.00
20013;BME280;10167;42.852;23.042;2023-03-11T05:30:51;93120.75;;;10.25;100.00
20013;BME280;10167;42.852;23.042;2023-03-11T05:33:22;93127.38;;;10.22;100.00
20013;BME280;10167;42.852;23.042;2023-03-11T05:35:53;93125.78;;;10.26;100.00
20013;BME280;10167;42.852;23.042;2023-03-11T05:38:22;93125.72;;;10.31;100.00
20013;BME280;10167;42.852;23.042;2023-03-11T05:40:51;93120.94;;;10.33;100.00
20013;BME280;10167;42.852;23.042;2023-03-11T05:43:20;93128.88;;;10.33;100.00
20013;BME280;10167;42.852;23.042;2023-03-11T05:45:53;93139.19;;;10.35;100.00
20013;BME280;10167;42.852;23.042;2023-03-11T05:48:24;93140.69;;;10.41;100.00
20013;BME280;10167;42.852;23.042;2023-03-11T05:50:53;93144.41;;;10.40;100.00
20013;BME280;10167;42.852;23.042;2023-03-11T05:53:23;93157.44;;;10.36;100.00
20013;BME280;10167;42.852;23.042;2023-03-11T05:55:56;93150.50;;;10.40;100.00
20013;BME280;10167;42.852;23.042;2023-03-11T05:58:30;93157.16;;;10.38;100.00
20013;BME280;10167;42.852;23.042;2023-03-11T06:00:59;93148.97;;;10.34;100.00
20013;BME280;10167;42.852;23.042;2023-03-11T06:03:30;93158.25;;;10.32;100.00
20013;BME280;10167;42.852;23.042;2023-03-11T06:05:59;93158.75;;;10.34;100.00
20013;BME280;10167;42.852;23.042;2023-03-11T06:08:28;93155.59;;;10.32;100.00
20013;BME280;10167;42.852;23.042;2023-03-11T06:11:00;93152.41;;;10.35;100.00
20013;BME280;10167;42.852;23.042;2023-03-11T06:13:29;93153.19;;;10.35;100.00
20013;BME280;10167;42.852;23.042;2023-03-11T06:15:58;93157.88;;;10.43;100.00
20013;BME280;10167;42.852;23.042;2023-03-11T06:18:29;93156.03;;;10.44;100.00
20013;BME280;10167;42.852;23.042;2023-03-11T06:21:00;93161.00;;;10.50;100.00
20013;BME280;10167;42.852;23.042;2023-03-11T06:23:31;93158.41;;;10.45;100.00
20013;BME280;10167;42.852;23.042;2023-03-11T06:26:03;93156.19;;;10.58;100.00
20013;BME280;10167;42.852;23.042;2023-03-11T06:28:38;93168.88;;;10.61;100.00
20013;BME280;10167;42.852;23.042;2023-03-11T06:31:07;93164.56;;;10.65;100.00
20013;BME280;10167;42.852;23.042;2023-03-11T06:33:39;93162.00;;;10.60;100.00
20013;BME280;10167;42.852;23.042;2023-03-11T06:36:09;93172.56;;;10.60;100.00
20013;BME280;10167;42.852;23.042;2023-03-11T06:38:40;93167.88;;;10.51;100.00
20013;BME280;10167;42.852;23.042;2023-03-11T06:41:09;93165.72;;;10.53;100.00
20013;BME280;10167;42.852;23.042;2023-03-11T06:43:39;93152.41;;;10.64;100.00
20013;BME280;10167;42.852;23.042;2023-03-11T06:46:09;93161.13;;;10.64;100.00
20013;BME280;10167;42.852;23.042;2023-03-11T06:48:41;93160.69;;;10.57;100.00
20013;BME280;10167;42.852;23.042;2023-03-11T06:51:14;93153.09;;;10.74;100.00
20013;BME280;10167;42.852;23.042;2023-03-11T06:53:43;93154.16;;;10.73;100.00
20013;BME280;10167;42.852;23.042;2023-03-11T06:56:17;93160.34;;;10.93;100.00
20013;BME280;10167;42.852;23.042;2023-03-11T06:58:52;93159.22;;;10.99;100.00
20013;BME280;10167;42.852;23.042;2023-03-11T07:01:24;93169.97;;;11.07;100.00
20013;BME280;10167;42.852;23.042;2023-03-11T07:03:57;93168.34;;;11.11;100.00
20013;BME280;10167;42.852;23.042;2023-03-11T07:06:27;93167.41;;;11.02;100.00
20013;BME280;10167;42.852;23.042;2023-03-11T07:09:18;93158.97;;;11.19;100.00
20013;BME280;10167;42.852;23.042;2023-03-11T07:11:52;93157.25;;;11.33;100.00
20013;BME280;10167;42.852;23.042;2023-03-11T07:14:30;93155.94;;;11.31;100.00
20013;BME280;10167;42.852;23.042;2023-03-11T07:16:59;93152.47;;;11.54;100.00
20013;BME280;10167;42.852;23.042;2023-03-11T07:19:36;93154.94;;;11.26;100.00
20013;BME280;10167;42.852;23.042;2023-03-11T07:22:06;93157.16;;;11.62;100.00
20013;BME280;10167;42.852;23.042;2023-03-11T07:24:35;93158.91;;;11.48;100.00
20013;BME280;10167;42.852;23.042;2023-03-11T07:27:04;93160.28;;;11.64;100.00
20013;BME280;10167;42.852;23.042;2023-03-11T07:29:33;93158.69;;;11.87;100.00
20013;BME280;10167;42.852;23.042;2023-03-11T07:32:03;93156.53;;;12.08;100.00
20013;BME280;10167;42.852;23.042;2023-03-11T07:34:33;93159.19;;;12.26;100.00
20013;BME280;10167;42.852;23.042;2023-03-11T07:37:03;93156.88;;;12.20;100.00
20013;BME280;10167;42.852;23.042;2023-03-11T07:39:32;93152.88;;;12.22;100.00
20013;BME280;10167;42.852;23.042;2023-03-11T07:42:03;93146.16;;;12.30;100.00
20013;BME280;10167;42.852;23.042;2023-03-11T07:44:35;93141.91;;;12.29;100.00
20013;BME280;10167;42.852;23.042;2023-03-11T07:47:05;93133.34;;;12.32;100.00
20013;BME280;10167;42.852;23.042;2023-03-11T07:49:36;93133.97;;;12.75;100.00
20013;BME280;10167;42.852;23.042;2023-03-11T07:52:07;93133.84;;;13.26;100.00
20013;BME280;10167;42.852;23.042;2023-03-11T07:54:36;93141.41;;;13.47;100.00
20013;BME280;10167;42.852;23.042;2023-03-11T07:57:05;93148.22;;;13.53;100.00
20013;BME280;10167;42.852;23.042;2023-03-11T07:59:35;93131.63;;;13.69;100.00
20013;BME280;10167;42.852;23.042;2023-03-11T08:02:04;93121.91;;;14.23;100.00
20013;BME280;10167;42.852;23.042;2023-03-11T08:04:33;93121.72;;;14.56;100.00
20013;BME280;10167;42.852;23.042;2023-03-11T08:07:02;93117.03;;;14.92;100.00
20013;BME280;10167;42.852;23.042;2023-03-11T08:09:35;93123.97;;;15.33;100.00
20013;BME280;10167;42.852;23.042;2023-03-11T08:12:04;93109.50;;;15.82;100.00
20013;BME280;10167;42.852;23.042;2023-03-11T08:14:34;93108.44;;;16.09;100.00
20013;BME280;10167;42.852;23.042;2023-03-11T08:17:03;93101.03;;;15.80;100.00
20013;BME280;10167;42.852;23.042;2023-03-11T08:19:32;93096.81;;;16.05;100.00
20013;BME280;10167;42.852;23.042;2023-03-11T08:22:02;93091.16;;;16.23;100.00
20013;BME280;10167;42.852;23.042;2023-03-11T08:24:31;93083.88;;;16.50;100.00
20013;BME280;10167;42.852;23.042;2023-03-11T08:27:02;93080.88;;;16.77;100.00
20013;BME280;10167;42.852;23.042;2023-03-11T08:29:31;93076.88;;;17.00;100.00
20013;BME280;10167;42.852;23.042;2023-03-11T08:32:02;93072.91;;;17.06;100.00
20013;BME280;10167;42.852;23.042;2023-03-11T08:34:31;93072.75;;;17.41;100.00
20013;BME280;10167;42.852;23.042;2023-03-11T08:37:02;93070.66;;;17.26;100.00
20013;BME280;10167;42.852;23.042;2023-03-11T08:39:31;93060.63;;;16.59;100.00
20013;BME280;10167;42.852;23.042;2023-03-11T08:42:01;93052.50;;;16.47;100.00
20013;BME280;10167;42.852;23.042;2023-03-11T08:44:30;93049.41;;;16.02;100.00
20013;BME280;10167;42.852;23.042;2023-03-11T08:47:00;93034.16;;;15.85;100.00
20013;BME280;10167;42.852;23.042;2023-03-11T08:49:29;93038.53;;;15.64;100.00
20013;BME280;10167;42.852;23.042;2023-03-11T08:51:58;93039.34;;;15.81;100.00
20013;BME280;10167;42.852;23.042;2023-03-11T08:54:30;93050.78;;;16.33;100.00
20013;BME280;10167;42.852;23.042;2023-03-11T08:57:03;93048.53;;;16.53;100.00
20013;BME280;10167;42.852;23.042;2023-03-11T08:59:32;93050.41;;;16.69;100.00
20013;BME280;10167;42.852;23.042;2023-03-11T09:02:02;93044.84;;;17.21;100.00
20013;BME280;10167;42.852;23.042;2023-03-11T09:04:31;93046.09;;;17.53;100.00
20013;BME280;10167;42.852;23.042;2023-03-11T09:07:00;93043.16;;;17.46;100.00
20013;BME280;10167;42.852;23.042;2023-03-11T09:09:29;93045.16;;;16.90;100.00
20013;BME280;10167;42.852;23.042;2023-03-11T09:11:58;93039.97;;;16.85;100.00
20013;BME280;10167;42.852;23.042;2023-03-11T09:14:28;93038.41;;;16.12;100.00
20013;BME280;10167;42.852;23.042;2023-03-11T09:16:57;93038.88;;;15.96;100.00
20013;BME280;10167;42.852;23.042;2023-03-11T09:19:26;93033.56;;;15.79;100.00
20013;BME280;10167;42.852;23.042;2023-03-11T09:21:58;93037.34;;;15.21;100.00
20013;BME280;10167;42.852;23.042;2023-03-11T09:24:28;93025.03;;;15.60;100.00
20013;BME280;10167;42.852;23.042;2023-03-11T09:26:57;93030.34;;;15.51;100.00
20013;BME280;10167;42.852;23.042;2023-03-11T09:29:28;93026.00;;;15.81;100.00
20013;BME280;10167;42.852;23.042;2023-03-11T09:31:57;93032.84;;;16.43;100.00
20013;BME280;10167;42.852;23.042;2023-03-11T09:34:27;93026.94;;;16.84;100.00
20013;BME280;10167;42.852;23.042;2023-03-11T09:36:56;93025.53;;;17.45;96.10
20013;BME280;10167;42.852;23.042;2023-03-11T09:39:25;93014.28;;;17.31;99.12
20013;BME280;10167;42.852;23.042;2023-03-11T09:41:56;93010.72;;;17.48;97.59
20013;BME280;10167;42.852;23.042;2023-03-11T09:44:34;93017.69;;;17.40;99.96
20013;BME280;10167;42.852;23.042;2023-03-11T09:47:23;93024.91;;;16.72;100.00
20013;BME280;10167;42.852;23.042;2023-03-11T09:50:08;93017.72;;;16.55;100.00
20013;BME280;10167;42.852;23.042;2023-03-11T09:52:45;93022.19;;;16.25;100.00
20013;BME280;10167;42.852;23.042;2023-03-11T09:55:30;93008.78;;;16.51;100.00
20013;BME280;10167;42.852;23.042;2023-03-11T09:58:03;93006.13;;;16.98;100.00
20013;BME280;10167;42.852;23.042;2023-03-11T10:00:36;93010.09;;;17.21;100.00
20013;BME280;10167;42.852;23.042;2023-03-11T10:03:13;93018.63;;;16.77;100.00
20013;BME280;10167;42.852;23.042;2023-03-11T10:05:46;93024.34;;;16.58;100.00
20013;BME280;10167;42.852;23.042;2023-03-11T10:08:22;93020.09;;;16.48;100.00
20013;BME280;10167;42.852;23.042;2023-03-11T10:11:00;93016.31;;;16.66;100.00
20013;BME280;10167;42.852;23.042;2023-03-11T10:13:38;93008.09;;;16.72;100.00
20013;BME280;10167;42.852;23.042;2023-03-11T10:16:19;93023.34;;;16.71;97.30
20013;BME280;10167;42.852;23.042;2023-03-11T10:18:57;93025.00;;;16.29;96.64
20013;BME280;10167;42.852;23.042;2023-03-11T10:21:38;93020.78;;;16.19;97.05
20013;BME280;10167;42.852;23.042;2023-03-11T10:24:18;93015.78;;;16.01;100.00
20013;BME280;10167;42.852;23.042;2023-03-11T10:26:55;93011.22;;;15.92;100.00
20013;BME280;10167;42.852;23.042;2023-03-11T10:29:28;93014.22;;;15.82;100.00
20013;BME280;10167;42.852;23.042;2023-03-11T10:32:05;93015.59;;;15.45;100.00
20013;BME280;10167;42.852;23.042;2023-03-11T10:34:41;93014.69;;;15.58;100.00
20013;BME280;10167;42.852;23.042;2023-03-11T10:37:12;93008.59;;;15.67;100.00
20013;BME280;10167;42.852;23.042;2023-03-11T10:39:45;93019.41;;;15.79;100.00
20013;BME280;10167;42.852;23.042;2023-03-11T10:42:17;93011.09;;;15.72;100.00
20013;BME280;10167;42.852;23.042;2023-03-11T10:44:48;93018.78;;;15.82;99.21
20013;BME280;10167;42.852;23.042;2023-03-11T10:47:21;93021.13;;;15.75;98.80
20013;BME280;10167;42.852;23.042;2023-03-11T10:49:51;93020.16;;;15.53;99.18
20013;BME280;10167;42.852;23.042;2023-03-11T10:52:20;93022.81;;;15.53;100.00
20013;BME280;10167;42.852;23.042;2023-03-11T10:54:59;93016.41;;;15.54;100.00
20013;BME280;10167;42.852;23.042;2023-03-11T10:57:33;93013.06;;;15.49;100.00
20013;BME280;10167;42.852;23.042;2023-03-11T11:00:04;93007.31;;;15.55;100.00
20013;BME280;10167;42.852;23.042;2023-03-11T11:02:50;93005.72;;;16.15;100.00
20013;BME280;10167;42.852;23.042;2023-03-11T11:05:29;93012.66;;;16.80;99.36
20013;BME280;10167;42.852;23.042;2023-03-11T11:08:05;92999.81;;;17.32;97.63
20013;BME280;10167;42.852;23.042;2023-03-11T11:10:36;92999.06;;;17.73;96.70
20013;BME280;10167;42.852;23.042;2023-03-11T11:13:18;92991.06;;;18.06;95.28
20013;BME280;10167;42.852;23.042;2023-03-11T11:15:55;92983.56;;;18.32;93.09
20013;BME280;10167;42.852;23.042;2023-03-11T11:18:28;92983.34;;;17.92;93.37
20013;BME280;10167;42.852;23.042;2023-03-11T11:21:01;92976.63;;;17.65;93.67
20013;BME280;10167;42.852;23.042;2023-03-11T11:23:38;92978.34;;;17.40;93.75
20013;BME280;10167;42.852;23.042;2023-03-11T11:26:15;92971.13;;;17.12;95.20
20013;BME280;10167;42.852;23.042;2023-03-11T11:28:45;92970.72;;;17.01;94.75
20013;BME280;10167;42.852;23.042;2023-03-11T11:31:21;92956.13;;;17.19;96.76
20013;BME280;10167;42.852;23.042;2023-03-11T11:33:53;92959.03;;;17.56;95.37
20013;BME280;10167;42.852;23.042;2023-03-11T11:36:27;92955.44;;;17.72;93.89
20013;BME280;10167;42.852;23.042;2023-03-11T11:38:58;92961.00;;;17.47;94.36
20013;BME280;10167;42.852;23.042;2023-03-11T11:41:30;92958.59;;;17.74;94.41
20013;BME280;10167;42.852;23.042;2023-03-11T11:44:03;92947.69;;;17.38;90.91
20013;BME280;10167;42.852;23.042;2023-03-11T11:46:37;92951.94;;;18.13;89.89
20013;BME280;10167;42.852;23.042;2023-03-11T11:49:17;92944.31;;;18.48;88.68
20013;BME280;10167;42.852;23.042;2023-03-11T11:51:50;92938.69;;;18.62;88.17
20013;BME280;10167;42.852;23.042;2023-03-11T11:54:25;92944.03;;;18.99;85.17
20013;BME280;10167;42.852;23.042;2023-03-11T11:56:56;92934.31;;;19.18;85.12
20013;BME280;10167;42.852;23.042;2023-03-11T11:59:27;92922.38;;;19.04;85.54
20013;BME280;10167;42.852;23.042;2023-03-11T12:02:10;92907.88;;;19.33;84.70
20013;BME280;10167;42.852;23.042;2023-03-11T12:04:51;92913.28;;;19.73;81.51
20013;BME280;10167;42.852;23.042;2023-03-11T12:07:33;92912.38;;;20.09;81.68
20013;BME280;10167;42.852;23.042;2023-03-11T12:10:15;92902.06;;;20.26;82.63
20013;BME280;10167;42.852;23.042;2023-03-11T12:13:04;92910.44;;;20.53;82.39
20013;BME280;10167;42.852;23.042;2023-03-11T12:15:42;92906.31;;;20.27;78.42
20013;BME280;10167;42.852;23.042;2023-03-11T12:18:18;92899.06;;;20.00;80.13
20013;BME280;10167;42.852;23.042;2023-03-11T12:20:53;92915.09;;;19.69;78.93
20013;BME280;10167;42.852;23.042;2023-03-11T12:23:32;92903.25;;;19.17;80.40
20013;BME280;10167;42.852;23.042;2023-03-11T12:26:13;92907.28;;;18.63;80.95
20013;BME280;10167;42.852;23.042;2023-03-11T12:28:47;92903.59;;;18.10;83.47
20013;BME280;10167;42.852;23.042;2023-03-11T12:31:19;92894.56;;;18.02;84.20
20013;BME280;10167;42.852;23.042;2023-03-11T12:33:54;92897.34;;;17.73;87.31
20013;BME280;10167;42.852;23.042;2023-03-11T12:36:29;92912.16;;;17.50;85.67
20013;BME280;10167;42.852;23.042;2023-03-11T12:39:02;92924.50;;;17.21;89.77
20013;BME280;10167;42.852;23.042;2023-03-11T12:41:33;92933.56;;;16.79;92.58
20013;BME280;10167;42.852;23.042;2023-03-11T12:44:22;92972.94;;;15.71;100.00
20013;BME280;10167;42.852;23.042;2023-03-11T12:47:01;92981.31;;;14.96;100.00
20013;BME280;10167;42.852;23.042;2023-03-11T12:49:31;93008.41;;;14.49;100.00
20013;BME280;10167;42.852;23.042;2023-03-11T12:52:17;93014.97;;;13.54;100.00
20013;BME280;10167;42.852;23.042;2023-03-11T12:54:47;93012.59;;;13.53;100.00
20013;BME280;10167;42.852;23.042;2023-03-11T12:57:33;93024.66;;;13.23;100.00
20013;BME280;10167;42.852;23.042;2023-03-11T13:00:25;93030.50;;;12.97;100.00
20013;BME280;10167;42.852;23.042;2023-03-11T13:03:26;93043.56;;;12.94;100.00
20013;BME280;10167;42.852;23.042;2023-03-11T13:06:15;93051.72;;;12.70;100.00
20013;BME280;10167;42.852;23.042;2023-03-11T13:08:50;93046.88;;;12.45;100.00